createdAt,value
2023-02-22T00:00:36.740Z,6.17
2023-02-22T00:01:19.428Z,6.16
2023-02-22T00:01:51.654Z,6.16
2023-02-22T00:02:29.158Z,6.14
2023-02-22T00:03:00.921Z,6.17
2023-02-22T00:03:32.821Z,6.07
2023-02-22T00:04:06.839Z,6.06
2023-02-22T00:04:42.431Z,6.00
2023-02-22T00:05:16.917Z,5.92
2023-02-22T00:05:48.645Z,5.92
2023-02-22T00:06:25.114Z,5.92
2023-02-22T00:07:01.299Z,5.93
2023-02-22T00:07:33.797Z,5.95
2023-02-22T00:08:09.383Z,5.89
2023-02-22T00:08:41.097Z,5.86
2023-02-22T00:09:13.839Z,5.85
2023-02-22T00:09:45.633Z,5.87
2023-02-22T00:10:20.457Z,5.87
2023-02-22T00:10:52.152Z,5.89
2023-02-22T00:11:23.855Z,5.89
2023-02-22T00:11:55.533Z,5.82
2023-02-22T00:12:29.318Z,5.71
2023-02-22T00:13:00.996Z,5.75
2023-02-22T00:13:32.661Z,5.67
2023-02-22T00:14:04.529Z,5.71
2023-02-22T00:14:36.211Z,5.71
2023-02-22T00:15:08.984Z,5.70
2023-02-22T00:15:41.558Z,5.62
2023-02-22T00:16:21.973Z,5.66
2023-02-22T00:16:56.291Z,5.72
2023-02-22T00:17:30.516Z,5.70
2023-02-22T00:18:04.717Z,5.67
2023-02-22T00:18:37.898Z,5.67
2023-02-22T00:19:10.612Z,5.64
2023-02-22T00:19:42.286Z,5.66
2023-02-22T00:20:18.751Z,5.58
2023-02-22T00:20:50.537Z,5.67
2023-02-22T00:21:22.775Z,5.72
2023-02-22T00:21:54.520Z,5.66
2023-02-22T00:22:26.269Z,5.66
2023-02-22T00:22:57.999Z,5.67
2023-02-22T00:23:31.960Z,5.64
2023-02-22T00:24:22.827Z,5.60
2023-02-22T00:24:55.435Z,5.53
2023-02-22T00:25:27.101Z,5.55
2023-02-22T00:26:01.193Z,5.58
2023-02-22T00:26:33.938Z,5.51
2023-02-22T00:27:05.635Z,5.54
2023-02-22T00:27:37.382Z,5.53
2023-02-22T00:28:09.053Z,5.53
2023-02-22T00:28:42.498Z,5.55
2023-02-22T00:29:14.255Z,5.59
2023-02-22T00:29:47.273Z,5.63
2023-02-22T00:30:26.757Z,5.67
2023-02-22T00:30:59.982Z,5.66
2023-02-22T00:31:31.779Z,5.66
2023-02-22T00:32:03.719Z,5.69
2023-02-22T00:32:35.920Z,5.70
2023-02-22T00:33:07.665Z,5.68
2023-02-22T00:33:40.583Z,5.66
2023-02-22T00:34:14.046Z,5.75
2023-02-22T00:34:45.806Z,5.75
2023-02-22T00:35:20.351Z,5.81
2023-02-22T00:35:52.228Z,5.83
2023-02-22T00:36:23.927Z,5.82
2023-02-22T00:36:55.647Z,5.81
2023-02-22T00:37:31.863Z,5.80
2023-02-22T00:38:04.394Z,5.79
2023-02-22T00:38:36.174Z,5.78
2023-02-22T00:39:09.941Z,5.77
2023-02-22T00:39:41.601Z,5.73
2023-02-22T00:40:18.129Z,5.74
2023-02-22T00:40:49.867Z,5.70
2023-02-22T00:41:21.617Z,5.72
2023-02-22T00:41:53.402Z,5.73
2023-02-22T00:42:25.237Z,5.67
2023-02-22T00:43:02.471Z,5.75
2023-02-22T00:43:34.968Z,5.75
2023-02-22T00:44:06.652Z,5.72
2023-02-22T00:44:38.739Z,5.76
2023-02-22T00:45:10.446Z,5.76
2023-02-22T00:45:42.417Z,5.69
2023-02-22T00:46:15.170Z,5.65
2023-02-22T00:46:46.938Z,5.67
2023-02-22T00:47:18.812Z,5.74
2023-02-22T00:47:51.512Z,5.71
2023-02-22T00:48:23.402Z,5.72
2023-02-22T00:48:55.126Z,5.82
2023-02-22T00:49:26.829Z,5.77
2023-02-22T00:49:58.778Z,5.74
2023-02-22T00:50:32.172Z,5.72
2023-02-22T00:51:04.232Z,5.69
2023-02-22T00:51:35.981Z,5.70
2023-02-22T00:52:09.149Z,5.73
2023-02-22T00:52:40.840Z,5.67
2023-02-22T00:53:12.585Z,5.70
2023-02-22T00:53:44.891Z,5.77
2023-02-22T00:54:20.097Z,5.79
2023-02-22T00:54:51.794Z,5.79
2023-02-22T00:55:27.854Z,5.82
2023-02-22T00:55:59.581Z,5.83
2023-02-22T00:56:34.500Z,5.84
2023-02-22T00:57:06.274Z,5.76
2023-02-22T00:57:38.310Z,5.81
2023-02-22T00:58:10.080Z,5.72
2023-02-22T00:58:41.752Z,5.77
2023-02-22T00:59:13.425Z,5.78
2023-02-22T00:59:45.144Z,5.85
2023-02-22T01:00:45.742Z,5.80
2023-02-22T01:01:17.657Z,5.82
2023-02-22T01:01:49.653Z,5.81
2023-02-22T01:02:21.364Z,5.84
2023-02-22T01:02:54.239Z,5.87
2023-02-22T01:03:25.977Z,5.89
2023-02-22T01:03:57.911Z,5.86
2023-02-22T01:04:29.880Z,5.85
2023-02-22T01:05:01.638Z,5.82
2023-02-22T01:05:33.715Z,5.83
2023-02-22T01:06:05.803Z,5.80
2023-02-22T01:06:37.729Z,5.84
2023-02-22T01:07:09.634Z,5.85
2023-02-22T01:07:41.404Z,5.87
2023-02-22T01:08:15.679Z,5.86
2023-02-22T01:08:48.898Z,5.90
2023-02-22T01:09:21.660Z,5.82
2023-02-22T01:09:53.726Z,5.87
2023-02-22T01:10:28.295Z,5.84
2023-02-22T01:11:01.007Z,5.77
2023-02-22T01:11:32.724Z,5.83
2023-02-22T01:12:04.752Z,5.84
2023-02-22T01:12:36.897Z,5.76
2023-02-22T01:13:12.311Z,5.80
2023-02-22T01:13:47.449Z,5.82
2023-02-22T01:14:21.148Z,5.84
2023-02-22T01:14:57.003Z,5.82
2023-02-22T01:15:30.848Z,5.82
2023-02-22T01:16:03.304Z,5.83
2023-02-22T01:16:35.522Z,5.80
2023-02-22T01:17:07.208Z,5.81
2023-02-22T01:17:40.237Z,5.75
2023-02-22T01:18:12.975Z,5.80
2023-02-22T01:18:44.743Z,5.77
2023-02-22T01:19:17.079Z,5.73
2023-02-22T01:19:48.844Z,5.77
2023-02-22T01:20:26.149Z,5.81
2023-02-22T01:20:57.870Z,5.76
2023-02-22T01:21:29.667Z,5.74
2023-02-22T01:22:01.427Z,5.74
2023-02-22T01:22:33.390Z,5.62
2023-02-22T01:23:08.148Z,5.69
2023-02-22T01:23:39.916Z,5.67
2023-02-22T01:24:16.370Z,5.76
2023-02-22T01:24:49.951Z,5.82
2023-02-22T01:25:24.990Z,5.80
2023-02-22T01:25:57.279Z,5.77
2023-02-22T01:26:28.984Z,5.77
2023-02-22T01:27:02.581Z,5.72
2023-02-22T01:27:38.740Z,5.73
2023-02-22T01:28:10.577Z,5.70
2023-02-22T01:28:42.255Z,5.67
2023-02-22T01:29:15.817Z,5.62
2023-02-22T01:29:50.175Z,5.66
2023-02-22T01:30:25.796Z,5.71
2023-02-22T01:30:58.055Z,5.66
2023-02-22T01:31:29.972Z,5.66
2023-02-22T01:32:01.825Z,5.64
2023-02-22T01:32:33.792Z,5.65
2023-02-22T01:33:07.583Z,5.66
2023-02-22T01:33:41.426Z,5.66
2023-02-22T01:34:13.175Z,5.70
2023-02-22T01:34:47.224Z,5.71
2023-02-22T01:35:24.872Z,5.66
2023-02-22T01:35:56.681Z,5.70
2023-02-22T01:36:28.330Z,5.74
2023-02-22T01:37:01.848Z,5.68
2023-02-22T01:37:33.525Z,5.64
2023-02-22T01:38:05.207Z,5.63
2023-02-22T01:38:38.193Z,5.60
2023-02-22T01:39:12.753Z,5.65
2023-02-22T01:39:44.561Z,5.61
2023-02-22T01:40:26.489Z,5.66
2023-02-22T01:40:58.177Z,5.68
2023-02-22T01:41:29.842Z,5.70
2023-02-22T01:42:01.820Z,5.71
2023-02-22T01:42:33.900Z,5.65
2023-02-22T01:43:16.726Z,5.65
2023-02-22T01:43:48.570Z,5.63
2023-02-22T01:44:31.096Z,5.59
2023-02-22T01:45:30.847Z,5.53
2023-02-22T01:46:05.742Z,5.49
2023-02-22T01:46:37.469Z,5.47
2023-02-22T01:47:09.216Z,5.43
2023-02-22T01:47:41.405Z,5.47
2023-02-22T01:48:16.928Z,5.45
2023-02-22T01:49:03.111Z,5.43
2023-02-22T01:49:48.149Z,5.38
2023-02-22T01:50:20.041Z,5.46
2023-02-22T01:51:13.082Z,5.47
2023-02-22T01:51:50.638Z,5.46
2023-02-22T01:52:22.888Z,5.44
2023-02-22T01:52:55.467Z,5.43
2023-02-22T01:53:34.885Z,5.41
2023-02-22T01:54:18.400Z,5.37
2023-02-22T01:54:55.822Z,5.34
2023-02-22T01:55:28.652Z,5.35
2023-02-22T01:56:01.572Z,5.38
2023-02-22T01:56:37.791Z,5.37
2023-02-22T01:57:22.115Z,5.37
2023-02-22T01:57:54.184Z,5.41
2023-02-22T01:58:30.430Z,5.32
2023-02-22T01:59:10.006Z,5.36
2023-02-22T01:59:46.928Z,5.38
2023-02-22T02:00:21.490Z,5.45
2023-02-22T02:00:53.579Z,5.48
2023-02-22T02:01:26.537Z,5.47
2023-02-22T02:01:58.319Z,5.43
2023-02-22T02:02:30.029Z,5.38
2023-02-22T02:03:18.239Z,5.38
2023-02-22T02:03:53.011Z,5.45
2023-02-22T02:04:26.198Z,5.44
2023-02-22T02:04:59.455Z,5.44
2023-02-22T02:05:34.354Z,5.34
2023-02-22T02:06:12.442Z,5.39
2023-02-22T02:06:45.687Z,5.41
2023-02-22T02:07:21.518Z,5.34
2023-02-22T02:07:54.153Z,5.41
2023-02-22T02:08:37.004Z,5.38
2023-02-22T02:09:50.028Z,5.37
2023-02-22T02:10:24.348Z,5.33
2023-02-22T02:10:58.121Z,5.30
2023-02-22T02:11:31.232Z,5.20
2023-02-22T02:12:06.511Z,5.23
2023-02-22T02:12:38.222Z,5.23
2023-02-22T02:13:10.728Z,5.17
2023-02-22T02:13:42.534Z,5.11
2023-02-22T02:14:15.305Z,5.10
2023-02-22T02:14:47.008Z,5.12
2023-02-22T02:15:31.189Z,5.13
2023-02-22T02:16:03.041Z,5.05
2023-02-22T02:16:50.696Z,5.04
2023-02-22T02:17:23.727Z,5.05
2023-02-22T02:18:05.540Z,5.08
2023-02-22T02:18:37.340Z,5.06
2023-02-22T02:19:46.741Z,5.05
2023-02-22T02:20:28.401Z,4.96
2023-02-22T02:21:28.915Z,5.02
2023-02-22T02:22:19.261Z,5.03
2023-02-22T02:23:17.006Z,5.06
2023-02-22T02:24:12.965Z,5.09
2023-02-22T02:25:18.147Z,5.05
2023-02-22T02:26:31.525Z,5.11
2023-02-22T02:27:13.341Z,5.09
2023-02-22T02:28:22.904Z,5.02
2023-02-22T02:29:00.471Z,4.95
2023-02-22T02:29:34.915Z,4.90
2023-02-22T02:30:24.641Z,4.82
2023-02-22T02:31:15.367Z,4.82
2023-02-22T02:32:12.167Z,4.84
2023-02-22T02:33:18.527Z,4.83
2023-02-22T02:34:07.670Z,4.88
2023-02-22T02:34:39.286Z,4.82
2023-02-22T02:35:21.610Z,4.76
2023-02-22T02:36:12.820Z,4.76
2023-02-22T02:36:59.102Z,4.67
2023-02-22T02:37:49.232Z,4.57
2023-02-22T02:38:44.189Z,4.65
2023-02-22T02:39:35.833Z,4.64
2023-02-22T02:40:17.951Z,4.59
2023-02-22T02:40:57.076Z,4.62
2023-02-22T02:41:45.455Z,4.68
2023-02-22T02:42:22.671Z,4.63
2023-02-22T02:42:58.324Z,4.69
2023-02-22T02:43:37.769Z,4.65
2023-02-22T02:44:17.027Z,4.65
2023-02-22T02:45:11.644Z,4.62
2023-02-22T02:45:55.202Z,4.69
2023-02-22T02:46:34.902Z,4.62
2023-02-22T02:47:14.766Z,4.61
2023-02-22T02:47:53.848Z,4.54
2023-02-22T02:48:28.990Z,4.55
2023-02-22T02:49:15.581Z,4.57
2023-02-22T02:50:13.469Z,4.56
2023-02-22T02:50:48.748Z,4.57
2023-02-22T02:51:24.844Z,4.55
2023-02-22T02:51:58.633Z,4.57
2023-02-22T02:52:34.824Z,4.52
2023-02-22T02:53:09.063Z,4.51
2023-02-22T02:53:46.478Z,4.46
2023-02-22T02:54:19.742Z,4.45
2023-02-22T02:54:53.619Z,4.37
2023-02-22T02:55:25.711Z,4.37
2023-02-22T02:55:59.788Z,4.37
2023-02-22T02:56:32.073Z,4.33
2023-02-22T02:57:04.632Z,4.38
2023-02-22T02:57:36.335Z,4.40
2023-02-22T02:58:08.955Z,4.39
2023-02-22T02:58:51.009Z,4.36
2023-02-22T02:59:34.827Z,4.35
2023-02-22T03:00:24.067Z,4.32
2023-02-22T03:01:01.502Z,4.33
2023-02-22T03:01:45.284Z,4.33
2023-02-22T03:02:35.501Z,4.31
2023-02-22T03:03:37.496Z,4.30
2023-02-22T03:04:22.959Z,4.34
2023-02-22T03:05:15.905Z,4.34
2023-02-22T03:06:13.383Z,4.32
2023-02-22T03:07:22.412Z,4.37
2023-02-22T03:08:03.121Z,4.35
2023-02-22T03:08:40.092Z,4.32
2023-02-22T03:09:37.654Z,4.39
2023-02-22T03:10:37.968Z,4.38
2023-02-22T03:11:23.509Z,4.38
2023-02-22T03:12:32.166Z,4.38
2023-02-22T03:13:16.160Z,4.39
2023-02-22T03:14:15.805Z,4.40
2023-02-22T03:15:02.905Z,4.42
2023-02-22T03:15:43.348Z,4.42
2023-02-22T03:16:52.200Z,4.43
2023-02-22T03:17:37.183Z,4.39
2023-02-22T03:18:33.219Z,4.38
2023-02-22T03:19:29.782Z,4.37
2023-02-22T03:20:15.020Z,4.41
2023-02-22T03:20:55.574Z,4.46
2023-02-22T03:21:55.736Z,4.49
2023-02-22T03:22:44.191Z,4.47
2023-02-22T03:24:08.202Z,4.40
2023-02-22T03:24:53.165Z,4.42
2023-02-22T03:25:34.170Z,4.46
2023-02-22T03:26:14.685Z,4.47
2023-02-22T03:27:02.900Z,4.45
2023-02-22T03:27:43.565Z,4.44
2023-02-22T03:28:19.006Z,4.44
2023-02-22T03:28:54.211Z,4.50
2023-02-22T03:29:35.547Z,4.52
2023-02-22T03:30:13.808Z,4.48
2023-02-22T03:30:52.882Z,4.44
2023-02-22T03:31:37.268Z,4.40
2023-02-22T03:32:15.875Z,4.44
2023-02-22T03:32:54.340Z,4.41
2023-02-22T03:33:52.728Z,4.45
2023-02-22T03:34:32.733Z,4.41
2023-02-22T03:35:11.100Z,4.40
2023-02-22T03:35:57.024Z,4.35
2023-02-22T03:36:39.226Z,4.34
2023-02-22T03:37:26.298Z,4.39
2023-02-22T03:38:04.728Z,4.38
2023-02-22T03:38:38.641Z,4.35
2023-02-22T03:39:16.828Z,4.34
2023-02-22T03:39:53.039Z,4.31
2023-02-22T03:40:33.285Z,4.36
2023-02-22T03:41:08.983Z,4.36
2023-02-22T03:41:41.272Z,4.36
2023-02-22T03:42:21.066Z,4.36
2023-02-22T03:42:59.403Z,4.32
2023-02-22T03:43:48.824Z,4.30
2023-02-22T03:44:27.181Z,4.26
2023-02-22T03:45:04.712Z,4.32
2023-02-22T03:45:43.507Z,4.33
2023-02-22T03:46:19.524Z,4.36
2023-02-22T03:46:56.883Z,4.31
2023-02-22T03:47:37.459Z,4.30
2023-02-22T03:48:16.979Z,4.23
2023-02-22T03:49:00.543Z,4.25
2023-02-22T03:49:36.392Z,4.27
2023-02-22T03:50:12.733Z,4.21
2023-02-22T03:50:44.579Z,4.26
2023-02-22T03:51:18.929Z,4.30
2023-02-22T03:51:51.410Z,4.32
2023-02-22T03:52:23.969Z,4.28
2023-02-22T03:52:59.119Z,4.32
2023-02-22T03:53:34.442Z,4.29
2023-02-22T03:54:07.164Z,4.30
2023-02-22T03:54:40.411Z,4.35
2023-02-22T03:55:13.917Z,4.38
2023-02-22T03:55:51.676Z,4.40
2023-02-22T03:56:35.744Z,4.42
2023-02-22T03:57:19.184Z,4.30
2023-02-22T03:57:58.762Z,4.33
2023-02-22T03:58:34.685Z,4.32
2023-02-22T03:59:10.052Z,4.32
2023-02-22T03:59:42.231Z,4.31
2023-02-22T04:00:20.232Z,4.28
2023-02-22T04:00:53.464Z,4.25
2023-02-22T04:01:25.236Z,4.28
2023-02-22T04:01:57.383Z,4.34
2023-02-22T04:02:29.108Z,4.33
2023-02-22T04:03:02.070Z,4.32
2023-02-22T04:03:33.781Z,4.29
2023-02-22T04:04:06.025Z,4.31
2023-02-22T04:04:38.048Z,4.25
2023-02-22T04:05:09.852Z,4.24
2023-02-22T04:05:41.572Z,4.25
2023-02-22T04:06:13.355Z,4.24
2023-02-22T04:06:45.485Z,4.16
2023-02-22T04:07:17.487Z,4.19
2023-02-22T04:07:49.630Z,4.26
2023-02-22T04:08:21.398Z,4.17
2023-02-22T04:08:53.107Z,4.17
2023-02-22T04:09:24.887Z,4.22
2023-02-22T04:09:56.574Z,4.16
2023-02-22T04:10:28.321Z,4.15
2023-02-22T04:11:01.444Z,4.17
2023-02-22T04:11:33.174Z,4.15
2023-02-22T04:12:05.664Z,4.13
2023-02-22T04:12:37.844Z,4.08
2023-02-22T04:13:10.756Z,4.12
2023-02-22T04:13:42.423Z,4.12
2023-02-22T04:14:14.248Z,4.07
2023-02-22T04:14:45.922Z,4.07
2023-02-22T04:15:22.023Z,4.07
2023-02-22T04:15:54.138Z,4.04
2023-02-22T04:16:25.878Z,4.02
2023-02-22T04:16:57.586Z,4.09
2023-02-22T04:17:29.289Z,4.14
2023-02-22T04:18:01.022Z,4.06
2023-02-22T04:18:32.726Z,4.05
2023-02-22T04:19:04.438Z,4.06
2023-02-22T04:19:36.359Z,4.03
2023-02-22T04:20:08.480Z,3.99
2023-02-22T04:20:40.131Z,3.99
2023-02-22T04:21:11.896Z,3.95
2023-02-22T04:21:43.593Z,3.87
2023-02-22T04:22:15.339Z,3.88
2023-02-22T04:22:47.494Z,3.90
2023-02-22T04:23:19.262Z,3.92
2023-02-22T04:23:51.351Z,3.88
2023-02-22T04:24:23.069Z,3.87
2023-02-22T04:24:54.852Z,3.86
2023-02-22T04:25:26.729Z,3.88
2023-02-22T04:25:58.453Z,3.81
2023-02-22T04:26:30.225Z,3.85
2023-02-22T04:27:02.000Z,3.87
2023-02-22T04:27:34.485Z,3.87
2023-02-22T04:28:06.252Z,3.82
2023-02-22T04:28:37.957Z,3.87
2023-02-22T04:29:09.730Z,3.81
2023-02-22T04:29:41.813Z,3.86
2023-02-22T04:30:13.700Z,3.85
2023-02-22T04:30:45.970Z,3.85
2023-02-22T04:31:18.343Z,3.84
2023-02-22T04:31:50.553Z,3.84
2023-02-22T04:32:22.383Z,3.80
2023-02-22T04:32:54.215Z,3.78
2023-02-22T04:33:25.962Z,3.81
2023-02-22T04:33:57.706Z,3.82
2023-02-22T04:34:29.491Z,3.79
2023-02-22T04:35:01.210Z,3.75
2023-02-22T04:35:35.413Z,3.77
2023-02-22T04:36:07.838Z,3.80
2023-02-22T04:36:42.378Z,3.79
2023-02-22T04:37:14.220Z,3.82
2023-02-22T04:37:45.922Z,3.78
2023-02-22T04:38:17.910Z,3.75
2023-02-22T04:38:49.600Z,3.84
2023-02-22T04:39:21.827Z,3.82
2023-02-22T04:39:53.539Z,3.85
2023-02-22T04:40:25.226Z,3.82
2023-02-22T04:40:56.993Z,3.77
2023-02-22T04:41:28.698Z,3.81
2023-02-22T04:42:00.592Z,3.82
2023-02-22T04:42:32.321Z,3.85
2023-02-22T04:43:04.046Z,3.82
2023-02-22T04:43:35.773Z,3.85
2023-02-22T04:44:07.845Z,3.86
2023-02-22T04:44:39.549Z,3.89
2023-02-22T04:45:11.412Z,3.92
2023-02-22T04:45:43.102Z,3.92
2023-02-22T04:46:14.925Z,3.88
2023-02-22T04:46:47.003Z,3.85
2023-02-22T04:47:18.874Z,3.89
2023-02-22T04:47:50.597Z,3.84
2023-02-22T04:48:22.280Z,3.83
2023-02-22T04:48:54.811Z,3.81
2023-02-22T04:49:26.576Z,3.78
2023-02-22T04:50:00.433Z,3.80
2023-02-22T04:50:32.180Z,3.77
2023-02-22T04:51:04.175Z,3.76
2023-02-22T04:51:36.935Z,3.76
2023-02-22T04:52:08.726Z,3.73
2023-02-22T04:52:40.821Z,3.75
2023-02-22T04:53:14.785Z,3.72
2023-02-22T04:53:47.047Z,3.67
2023-02-22T04:54:19.695Z,3.59
2023-02-22T04:54:51.562Z,3.62
2023-02-22T04:55:23.464Z,3.59
2023-02-22T04:55:55.648Z,3.56
2023-02-22T04:56:32.924Z,3.54
2023-02-22T04:57:04.782Z,3.56
2023-02-22T04:57:36.606Z,3.52
2023-02-22T04:58:09.597Z,3.47
2023-02-22T04:58:42.450Z,3.46
2023-02-22T04:59:14.399Z,3.51
2023-02-22T04:59:46.103Z,3.50
2023-02-22T05:00:21.870Z,3.49
2023-02-22T05:00:54.099Z,3.41
2023-02-22T05:01:25.828Z,3.41
2023-02-22T05:01:57.561Z,3.39
2023-02-22T05:02:29.248Z,3.37
2023-02-22T05:03:01.071Z,3.46
2023-02-22T05:03:32.769Z,3.41
2023-02-22T05:04:06.776Z,3.38
2023-02-22T05:04:39.003Z,3.42
2023-02-22T05:05:11.271Z,3.42
2023-02-22T05:05:43.978Z,3.39
2023-02-22T05:06:17.836Z,3.40
2023-02-22T05:06:49.626Z,3.38
2023-02-22T05:07:21.425Z,3.41
2023-02-22T05:07:53.377Z,3.40
2023-02-22T05:08:25.183Z,3.40
2023-02-22T05:08:56.987Z,3.38
2023-02-22T05:09:28.879Z,3.36
2023-02-22T05:10:03.019Z,3.31
2023-02-22T05:10:34.817Z,3.38
2023-02-22T05:11:06.710Z,3.34
2023-02-22T05:11:38.563Z,3.27
2023-02-22T05:12:10.237Z,3.33
2023-02-22T05:12:42.031Z,3.45
2023-02-22T05:13:13.748Z,3.61
2023-02-22T05:13:45.496Z,3.53
2023-02-22T05:14:17.202Z,3.51
2023-02-22T05:14:48.933Z,3.48
2023-02-22T05:15:23.118Z,3.67
2023-02-22T05:15:54.941Z,3.77
2023-02-22T05:16:26.781Z,3.74
2023-02-22T05:16:59.106Z,3.77
2023-02-22T05:17:30.857Z,3.85
2023-02-22T05:18:02.652Z,3.69
2023-02-22T05:18:34.461Z,3.76
2023-02-22T05:19:06.303Z,3.72
2023-02-22T05:19:38.214Z,3.59
2023-02-22T05:20:29.736Z,3.66
2023-02-22T05:21:01.495Z,3.61
2023-02-22T05:21:33.601Z,3.69
2023-02-22T05:22:05.765Z,3.67
2023-02-22T05:22:37.455Z,3.67
2023-02-22T05:23:09.232Z,3.61
2023-02-22T05:23:41.720Z,3.63
2023-02-22T05:24:13.392Z,3.59
2023-02-22T05:24:45.079Z,3.59
2023-02-22T05:25:16.774Z,3.59
2023-02-22T05:25:48.534Z,3.61
2023-02-22T05:26:20.250Z,3.59
2023-02-22T05:26:53.407Z,3.58
2023-02-22T05:27:25.464Z,3.58
2023-02-22T05:27:59.674Z,3.58
2023-02-22T05:28:32.413Z,3.61
2023-02-22T05:29:04.232Z,3.66
2023-02-22T05:29:38.640Z,3.66
2023-02-22T05:30:11.931Z,3.84
2023-02-22T05:30:43.846Z,4.05
2023-02-22T05:31:16.051Z,4.16
2023-02-22T05:31:48.113Z,4.17
2023-02-22T05:32:19.971Z,4.15
2023-02-22T05:32:52.576Z,4.15
2023-02-22T05:33:24.283Z,4.27
2023-02-22T05:33:55.998Z,4.27
2023-02-22T05:34:27.714Z,4.25
2023-02-22T05:34:59.434Z,4.21
2023-02-22T05:35:31.147Z,4.19
2023-02-22T05:36:02.935Z,4.22
2023-02-22T05:36:34.781Z,4.20
2023-02-22T05:37:06.455Z,4.19
2023-02-22T05:37:38.893Z,4.19
2023-02-22T05:38:15.123Z,4.17
2023-02-22T05:38:46.844Z,4.16
2023-02-22T05:39:18.570Z,4.15
2023-02-22T05:39:53.457Z,4.10
2023-02-22T05:40:27.868Z,4.07
2023-02-22T05:40:59.530Z,4.02
2023-02-22T05:41:31.319Z,4.01
2023-02-22T05:42:03.064Z,3.98
2023-02-22T05:42:37.504Z,3.96
2023-02-22T05:43:09.854Z,3.96
2023-02-22T05:43:41.845Z,3.90
2023-02-22T05:44:13.753Z,3.93
2023-02-22T05:44:45.637Z,3.91
2023-02-22T05:45:20.857Z,3.92
2023-02-22T05:45:52.614Z,3.90
2023-02-22T05:46:25.229Z,3.88
2023-02-22T05:46:57.078Z,3.88
2023-02-22T05:47:28.807Z,3.82
2023-02-22T05:48:01.049Z,3.85
2023-02-22T05:48:33.242Z,3.81
2023-02-22T05:49:05.438Z,3.82
2023-02-22T05:49:37.141Z,3.86
2023-02-22T05:50:09.960Z,3.87
2023-02-22T05:50:41.692Z,3.82
2023-02-22T05:51:13.551Z,3.83
2023-02-22T05:51:45.265Z,3.79
2023-02-22T05:52:17.025Z,3.74
2023-02-22T05:52:49.384Z,3.72
2023-02-22T05:53:21.102Z,3.71
2023-02-22T05:53:52.850Z,3.65
2023-02-22T05:54:24.542Z,3.64
2023-02-22T05:54:56.225Z,3.68
2023-02-22T05:55:28.114Z,3.62
2023-02-22T05:55:59.871Z,3.71
2023-02-22T05:56:31.680Z,3.73
2023-02-22T05:57:03.680Z,3.70
2023-02-22T05:57:35.640Z,3.70
2023-02-22T05:58:07.377Z,3.69
2023-02-22T05:58:39.078Z,3.62
2023-02-22T05:59:10.806Z,3.66
2023-02-22T05:59:43.154Z,3.65
2023-02-22T06:00:27.472Z,3.73
2023-02-22T06:01:00.731Z,3.72
2023-02-22T06:01:33.312Z,3.76
2023-02-22T06:02:05.101Z,3.77
2023-02-22T06:02:36.956Z,3.74
2023-02-22T06:03:12.560Z,3.68
2023-02-22T06:03:47.930Z,3.65
2023-02-22T06:04:20.233Z,3.71
2023-02-22T06:04:52.227Z,3.68
2023-02-22T06:05:24.435Z,3.71
2023-02-22T06:05:56.234Z,3.76
2023-02-22T06:06:27.957Z,3.74
2023-02-22T06:06:59.765Z,3.76
2023-02-22T06:07:31.502Z,3.76
2023-02-22T06:08:04.366Z,3.73
2023-02-22T06:08:36.606Z,3.71
2023-02-22T06:09:08.681Z,3.71
2023-02-22T06:09:40.937Z,3.69
2023-02-22T06:10:14.019Z,3.73
2023-02-22T06:10:45.810Z,3.76
2023-02-22T06:11:19.753Z,3.76
2023-02-22T06:11:54.517Z,3.84
2023-02-22T06:12:27.165Z,3.85
2023-02-22T06:13:00.308Z,3.90
2023-02-22T06:13:32.018Z,3.95
2023-02-22T06:14:03.765Z,3.93
2023-02-22T06:14:36.208Z,3.91
2023-02-22T06:15:08.040Z,3.91
2023-02-22T06:15:39.739Z,3.98
2023-02-22T06:16:11.513Z,4.04
2023-02-22T06:16:43.746Z,4.04
2023-02-22T06:17:19.295Z,4.03
2023-02-22T06:17:53.356Z,4.10
2023-02-22T06:18:26.816Z,4.11
2023-02-22T06:19:00.231Z,4.16
2023-02-22T06:19:32.176Z,4.05
2023-02-22T06:20:04.103Z,4.15
2023-02-22T06:20:35.877Z,4.19
2023-02-22T06:21:08.928Z,4.16
2023-02-22T06:21:42.137Z,4.17
2023-02-22T06:22:18.980Z,4.28
2023-02-22T06:22:52.942Z,4.31
2023-02-22T06:23:25.825Z,4.25
2023-02-22T06:23:57.489Z,4.30
2023-02-22T06:24:29.237Z,4.34
2023-02-22T06:25:03.722Z,4.28
2023-02-22T06:25:36.233Z,4.34
2023-02-22T06:26:07.972Z,4.36
2023-02-22T06:26:39.646Z,4.29
2023-02-22T06:27:11.635Z,4.31
2023-02-22T06:27:43.553Z,4.31
2023-02-22T06:28:15.870Z,4.33
2023-02-22T06:28:47.580Z,4.35
2023-02-22T06:29:19.291Z,4.42
2023-02-22T06:29:51.022Z,4.41
2023-02-22T06:30:25.196Z,4.45
2023-02-22T06:30:56.967Z,4.51
2023-02-22T06:31:28.679Z,4.55
2023-02-22T06:32:00.422Z,4.62
2023-02-22T06:32:32.329Z,4.66
2023-02-22T06:33:04.075Z,4.73
2023-02-22T06:33:35.732Z,4.80
2023-02-22T06:34:07.508Z,4.84
2023-02-22T06:34:41.035Z,4.94
2023-02-22T06:35:12.821Z,4.99
2023-02-22T06:35:45.332Z,5.02
2023-02-22T06:36:20.107Z,5.16
2023-02-22T06:36:51.873Z,5.27
2023-02-22T06:37:23.585Z,5.36
2023-02-22T06:37:55.260Z,5.48
2023-02-22T06:38:27.905Z,5.66
2023-02-22T06:38:59.728Z,5.76
2023-02-22T06:39:31.405Z,5.84
2023-02-22T06:40:05.693Z,5.88
2023-02-22T06:40:37.806Z,5.99
2023-02-22T06:41:10.017Z,6.19
2023-02-22T06:41:43.837Z,6.49
2023-02-22T06:42:15.806Z,6.77
2023-02-22T06:42:49.144Z,6.93
2023-02-22T06:43:21.951Z,7.10
2023-02-22T06:43:53.630Z,7.38
2023-02-22T06:44:25.330Z,7.63
2023-02-22T06:44:57.046Z,7.96
2023-02-22T06:45:28.880Z,8.24
2023-02-22T06:46:00.743Z,8.56
2023-02-22T06:46:32.927Z,8.83
2023-02-22T06:47:53.610Z,9.62
2023-02-22T06:48:25.417Z,9.98
2023-02-22T06:48:59.528Z,10.28
2023-02-22T06:49:31.194Z,10.63
2023-02-22T06:50:02.999Z,10.89
2023-02-22T06:50:35.935Z,11.17
2023-02-22T06:51:10.892Z,11.51
2023-02-22T06:51:43.374Z,11.87
2023-02-22T06:52:15.065Z,12.22
2023-02-22T06:52:47.987Z,12.46
2023-02-22T06:53:19.637Z,12.77
2023-02-22T06:53:51.479Z,12.87
2023-02-22T06:54:24.261Z,13.11
2023-02-22T06:54:55.993Z,13.27
2023-02-22T06:55:30.273Z,13.56
2023-02-22T06:56:02.502Z,13.74
2023-02-22T06:56:34.203Z,14.02
2023-02-22T06:57:05.909Z,14.18
2023-02-22T06:57:37.705Z,14.27
2023-02-22T06:58:09.613Z,14.35
2023-02-22T06:58:41.351Z,14.53
2023-02-22T06:59:13.197Z,14.73
2023-02-22T06:59:45.218Z,14.99
2023-02-22T07:00:23.390Z,15.13
2023-02-22T07:00:55.241Z,15.26
2023-02-22T07:01:26.943Z,15.35
2023-02-22T07:01:59.355Z,15.47
2023-02-22T07:02:31.047Z,15.66
2023-02-22T07:03:04.768Z,15.73
2023-02-22T07:03:36.866Z,15.82
2023-02-22T07:04:09.632Z,16.10
2023-02-22T07:04:43.532Z,15.90
2023-02-22T07:05:17.255Z,16.11
2023-02-22T07:05:48.961Z,16.23
2023-02-22T07:06:20.723Z,16.45
2023-02-22T07:06:52.394Z,16.60
2023-02-22T07:07:25.366Z,16.73
2023-02-22T07:08:05.429Z,16.76
2023-02-22T07:08:37.458Z,16.80
2023-02-22T07:09:09.174Z,16.87
2023-02-22T07:09:40.893Z,16.92
2023-02-22T07:10:27.771Z,16.99
2023-02-22T07:10:59.637Z,17.22
2023-02-22T07:11:31.568Z,17.28
2023-02-22T07:12:03.641Z,17.33
2023-02-22T07:12:35.863Z,17.49
2023-02-22T07:13:08.855Z,17.58
2023-02-22T07:13:41.583Z,17.67
2023-02-22T07:14:19.026Z,17.64
2023-02-22T07:14:54.481Z,17.79
2023-02-22T07:15:28.118Z,17.72
2023-02-22T07:16:00.919Z,18.01
2023-02-22T07:16:33.794Z,18.15
2023-02-22T07:17:05.547Z,18.30
2023-02-22T07:17:37.309Z,18.43
2023-02-22T07:18:09.210Z,18.49
2023-02-22T07:18:40.934Z,18.62
2023-02-22T07:19:12.587Z,18.74
2023-02-22T07:19:44.259Z,18.83
2023-02-22T07:20:16.906Z,18.90
2023-02-22T07:20:48.661Z,19.05
2023-02-22T07:21:20.456Z,19.15
2023-02-22T07:21:59.234Z,19.27
2023-02-22T07:22:31.125Z,19.22
2023-02-22T07:23:02.992Z,19.27
2023-02-22T07:23:35.145Z,19.38
2023-02-22T07:24:07.198Z,19.46
2023-02-22T07:24:40.793Z,19.65
2023-02-22T07:25:12.926Z,19.70
2023-02-22T07:25:44.803Z,19.77
2023-02-22T07:26:16.507Z,19.50
2023-02-22T07:26:48.234Z,19.67
2023-02-22T07:27:19.923Z,19.84
2023-02-22T07:27:53.049Z,19.98
2023-02-22T07:28:24.790Z,20.13
2023-02-22T07:28:56.520Z,20.17
2023-02-22T07:29:28.215Z,20.31
2023-02-22T07:29:59.907Z,20.40
2023-02-22T07:30:34.567Z,20.50
2023-02-22T07:31:06.475Z,20.51
2023-02-22T07:31:39.582Z,20.69
2023-02-22T07:32:18.090Z,20.80
2023-02-22T07:32:50.905Z,20.89
2023-02-22T07:33:22.829Z,20.92
2023-02-22T07:33:54.491Z,21.02
2023-02-22T07:34:26.288Z,21.14
2023-02-22T07:34:58.030Z,21.23
2023-02-22T07:35:32.097Z,21.30
2023-02-22T07:36:04.183Z,21.40
2023-02-22T07:36:35.850Z,21.43
2023-02-22T07:37:07.507Z,21.36
2023-02-22T07:37:39.181Z,21.42
2023-02-22T07:38:10.927Z,21.39
2023-02-22T07:38:42.624Z,21.56
2023-02-22T07:39:14.330Z,21.56
2023-02-22T07:39:46.034Z,21.71
2023-02-22T07:40:19.805Z,21.67
2023-02-22T07:40:54.252Z,21.86
2023-02-22T07:41:26.374Z,22.12
2023-02-22T07:42:02.104Z,22.16
2023-02-22T07:42:50.255Z,22.20
2023-02-22T07:43:24.821Z,22.24
2023-02-22T07:43:56.479Z,22.39
2023-02-22T07:44:28.232Z,22.36
2023-02-22T07:44:59.927Z,22.42
2023-02-22T07:45:34.480Z,22.45